Time;durP1;ratioP1;P1;durP2;ratioP2;P2;SDS_P1;SDS_P2;PMS_P1;PMS_P2;Temp;Humidity;BMP_temperature;BMP_pressure;BME280_temperature;BME280_humidity;BME280_pressure;Samples;Min_cycle;Max_cycle;Signal;HPM_P1;HPM_P2
2023/08/24 00:00:17;;;;;;;4.00;1.80;;;18.20;99.90;;;;;;5055900;28;20186;-84
2023/08/24 00:02:42;;;;;;;6.78;1.83;;;18.20;99.90;;;;;;5055686;28;20060;-85
2023/08/24 00:05:08;;;;;;;7.50;2.25;;;18.20;99.90;;;;;;5049632;28;20037;-85
2023/08/24 00:07:34;;;;;;;4.97;1.60;;;18.10;99.90;;;;;;5052533;28;20174;-85
2023/08/24 00:09:59;;;;;;;3.38;1.55;;;18.10;99.90;;;;;;5054351;28;20036;-85
2023/08/24 00:12:25;;;;;;;6.97;2.35;;;18.10;99.90;;;;;;5056202;28;20119;-85
2023/08/24 00:14:51;;;;;;;5.95;1.85;;;18.00;99.90;;;;;;5057503;28;20040;-85
2023/08/24 00:17:17;;;;;;;8.70;2.42;;;18.00;99.90;;;;;;5059970;28;20041;-85
2023/08/24 00:19:43;;;;;;;5.85;1.83;;;17.90;99.90;;;;;;5061741;28;20148;-85
2023/08/24 00:22:09;;;;;;;6.25;2.20;;;17.90;99.90;;;;;;5057802;28;20097;-86
2023/08/24 00:24:34;;;;;;;9.05;2.20;;;17.90;99.90;;;;;;5055605;28;20078;-85
2023/08/24 00:27:00;;;;;;;4.40;2.00;;;17.90;99.90;;;;;;5056111;28;20048;-84
2023/08/24 00:29:26;;;;;;;6.22;1.60;;;17.80;99.90;;;;;;5054835;28;20514;-85
2023/08/24 00:31:51;;;;;;;5.28;2.15;;;17.80;99.90;;;;;;5057195;28;20028;-85
2023/08/24 00:34:17;;;;;;;9.20;2.20;;;17.80;99.90;;;;;;5050446;28;20545;-84
2023/08/24 00:36:43;;;;;;;4.45;1.95;;;17.80;99.90;;;;;;5051574;28;20572;-85
2023/08/24 00:39:10;;;;;;;6.15;2.45;;;17.80;99.90;;;;;;5050146;28;20049;-84
2023/08/24 00:41:35;;;;;;;8.07;2.50;;;17.80;99.90;;;;;;5053005;28;20120;-84
2023/08/24 00:44:01;;;;;;;7.07;2.60;;;17.70;99.90;;;;;;5051674;28;20154;-85
2023/08/24 00:46:27;;;;;;;9.48;2.55;;;17.80;99.90;;;;;;5055724;28;20051;-85
2023/08/24 00:48:57;;;;;;;5.22;2.45;;;17.70;99.90;;;;;;5053255;28;20370;-85
2023/08/24 00:51:23;;;;;;;3.50;1.80;;;17.70;99.90;;;;;;5048143;28;20064;-85
2023/08/24 00:53:49;;;;;;;5.07;2.10;;;17.70;99.90;;;;;;5051104;28;20037;-85
2023/08/24 00:56:15;;;;;;;8.90;2.15;;;17.60;99.90;;;;;;5056740;28;20682;-84
2023/08/24 00:58:42;;;;;;;6.10;2.15;;;17.60;99.90;;;;;;5055868;28;20041;-85
2023/08/24 01:01:08;;;;;;;6.70;3.30;;;17.60;99.90;;;;;;5051587;28;20048;-85
2023/08/24 01:03:34;;;;;;;5.47;2.30;;;17.60;99.90;;;;;;5041108;28;20057;-85
2023/08/24 01:06:00;;;;;;;7.65;1.90;;;17.60;99.90;;;;;;5021371;28;20049;-84
2023/08/24 01:08:26;;;;;;;6.43;2.72;;;17.50;99.90;;;;;;5054574;28;20064;-85
2023/08/24 01:11:21;;;;;;;6.47;2.28;;;17.50;99.90;;;;;;5057857;28;20036;-85
2023/08/24 01:13:54;;;;;;;;;;;17.40;99.90;;;;;;5013281;28;20145;-85
2023/08/24 01:16:27;;;;;;;8.77;2.40;;;17.50;99.90;;;;;;5002695;28;19940;-85
2023/08/24 01:18:59;;;;;;;8.55;2.63;;;17.50;99.90;;;;;;5013028;28;20516;-85
2023/08/24 01:21:26;;;;;;;5.93;2.42;;;17.50;99.90;;;;;;4999399;28;20555;-85
2023/08/24 01:24:17;;;;;;;4.22;1.95;;;17.50;99.90;;;;;;5027870;28;20179;-85
2023/08/24 01:26:44;;;;;;;8.77;2.33;;;17.40;99.90;;;;;;5029470;28;20107;-84
2023/08/24 01:29:10;;;;;;;7.40;2.05;;;17.40;99.90;;;;;;5033088;28;20046;-84
2023/08/24 01:31:36;;;;;;;10.38;2.63;;;17.40;99.90;;;;;;5012925;28;20041;-85
2023/08/24 01:34:02;;;;;;;8.50;2.42;;;17.40;99.90;;;;;;5000632;28;20045;-86
2023/08/24 01:36:28;;;;;;;6.97;2.85;;;17.50;99.90;;;;;;5034516;28;20045;-85
2023/08/24 01:39:06;;;;;;;5.20;2.65;;;17.40;99.90;;;;;;5020726;28;20567;-85
2023/08/24 01:41:39;;;;;;;6.72;2.38;;;17.40;99.90;;;;;;5001702;28;20485;-85
2023/08/24 01:44:08;;;;;;;4.68;2.08;;;17.40;99.90;;;;;;5019421;28;20171;-85
2023/08/24 01:46:36;;;;;;;8.93;2.30;;;17.40;99.90;;;;;;5035049;28;20038;-85
2023/08/24 01:49:04;;;;;;;3.90;2.13;;;17.40;99.90;;;;;;5023610;28;20057;-85
2023/08/24 01:51:31;;;;;;;12.98;3.20;;;17.40;99.90;;;;;;5053781;28;20040;-86
2023/08/24 01:53:58;;;;;;;5.50;2.70;;;17.40;99.90;;;;;;5055342;28;20479;-85
2023/08/24 01:56:24;;;;;;;8.23;2.78;;;17.40;99.90;;;;;;5050633;28;20060;-85
2023/08/24 01:58:50;;;;;;;8.98;5.18;;;17.40;99.90;;;;;;5040034;28;20047;-85
2023/08/24 02:01:16;;;;;;;9.55;4.28;;;17.40;99.90;;;;;;5058506;28;20398;-86
2023/08/24 02:03:41;;;;;;;7.18;3.95;;;17.40;99.90;;;;;;5048823;28;20048;-85
2023/08/24 02:06:08;;;;;;;8.63;5.38;;;17.40;99.90;;;;;;5051412;28;20269;-85
2023/08/24 02:08:33;;;;;;;8.18;4.53;;;17.40;99.90;;;;;;5056151;28;20867;-85
2023/08/24 02:10:59;;;;;;;7.40;4.63;;;17.40;99.90;;;;;;5065043;28;20088;-85
2023/08/24 02:13:25;;;;;;;13.90;5.85;;;17.40;99.90;;;;;;5057228;28;20115;-85
2023/08/24 02:15:50;;;;;;;10.60;4.60;;;17.50;99.90;;;;;;5059387;28;20047;-85
2023/08/24 02:18:16;;;;;;;10.60;5.80;;;17.50;99.90;;;;;;5060798;28;20066;-85
2023/08/24 02:20:42;;;;;;;10.95;5.30;;;17.50;99.90;;;;;;5058529;28;20087;-85
2023/08/24 02:23:07;;;;;;;9.82;6.15;;;17.40;99.90;;;;;;5043496;28;20044;-85
2023/08/24 02:25:33;;;;;;;9.30;5.78;;;17.40;99.90;;;;;;5056825;28;20542;-85
2023/08/24 02:27:59;;;;;;;12.05;6.40;;;17.30;99.90;;;;;;5054310;28;20073;-86
2023/08/24 02:30:25;;;;;;;12.40;7.32;;;17.30;99.90;;;;;;5058899;28;20537;-85
2023/08/24 02:32:51;;;;;;;13.07;7.07;;;17.30;99.90;;;;;;5057667;28;20035;-85
2023/08/24 02:35:18;;;;;;;13.70;6.80;;;17.30;99.90;;;;;;5055424;28;20049;-85
2023/08/24 02:37:43;;;;;;;8.15;5.03;;;17.20;99.90;;;;;;5061221;28;20068;-85
2023/08/24 02:40:09;;;;;;;16.13;8.73;;;17.20;99.90;;;;;;5056419;28;20072;-85
2023/08/24 02:42:35;;;;;;;11.40;6.75;;;17.20;99.90;;;;;;5057701;28;20563;-85
2023/08/24 02:45:02;;;;;;;8.70;4.93;;;17.20;99.90;;;;;;5093324;28;20045;-85
2023/08/24 02:47:27;;;;;;;6.97;4.78;;;17.20;99.90;;;;;;5053769;28;20607;-85
2023/08/24 02:49:53;;;;;;;7.15;3.97;;;17.20;99.90;;;;;;5056576;28;20037;-85
2023/08/24 02:52:19;;;;;;;6.22;3.58;;;17.10;99.90;;;;;;5057276;28;20040;-85
2023/08/24 02:54:44;;;;;;;10.48;6.88;;;17.10;99.90;;;;;;5069876;28;20636;-85
2023/08/24 02:57:10;;;;;;;10.25;4.72;;;17.10;99.90;;;;;;5056748;28;20028;-85
2023/08/24 02:59:36;;;;;;;13.88;6.30;;;17.10;99.90;;;;;;5055399;28;20467;-85
2023/08/24 03:02:02;;;;;;;10.98;5.60;;;17.10;99.90;;;;;;5055776;28;20442;-85
2023/08/24 03:04:28;;;;;;;13.65;6.47;;;17.10;99.90;;;;;;5059227;28;20139;-85
2023/08/24 03:06:54;;;;;;;13.65;5.57;;;17.20;99.90;;;;;;5055920;28;20140;-85
2023/08/24 03:09:19;;;;;;;10.60;6.72;;;17.10;99.90;;;;;;5057987;28;20657;-85
2023/08/24 03:11:45;;;;;;;9.13;5.18;;;17.20;99.90;;;;;;5059017;28;20043;-85
2023/08/24 03:14:11;;;;;;;12.00;6.53;;;17.20;99.90;;;;;;5085384;28;20437;-85
2023/08/24 03:16:39;;;;;;;9.25;5.55;;;17.20;99.90;;;;;;5042020;28;20033;-85
2023/08/24 03:19:04;;;;;;;12.43;6.30;;;17.20;99.90;;;;;;5056459;28;20048;-85
2023/08/24 03:21:30;;;;;;;11.52;5.45;;;17.20;99.90;;;;;;5051535;28;20758;-85
2023/08/24 03:23:56;;;;;;;14.48;7.63;;;17.20;99.90;;;;;;5056488;28;20040;-85
2023/08/24 03:26:23;;;;;;;14.60;6.07;;;17.10;99.90;;;;;;5062139;28;20044;-85
2023/08/24 03:28:49;;;;;;;13.90;6.10;;;17.10;99.90;;;;;;5056788;28;20484;-85
2023/08/24 03:31:15;;;;;;;9.85;6.22;;;17.10;99.90;;;;;;5059419;28;20033;-85
2023/08/24 03:33:40;;;;;;;8.95;4.82;;;17.10;99.90;;;;;;5062702;28;20032;-84
2023/08/24 03:36:06;;;;;;;8.93;5.03;;;17.10;99.90;;;;;;5052789;28;20041;-85
2023/08/24 03:38:32;;;;;;;13.25;6.70;;;17.00;99.90;;;;;;5051285;28;20121;-85
2023/08/24 03:41:03;;;;;;;11.20;5.85;;;17.00;99.90;;;;;;5059401;28;20400;-85
2023/08/24 03:43:37;;;;;;;11.10;7.28;;;17.00;99.90;;;;;;5058495;28;20041;-85
2023/08/24 03:46:03;;;;;;;12.80;6.05;;;17.00;99.90;;;;;;5059436;28;20070;-85
2023/08/24 03:48:29;;;;;;;12.68;6.60;;;17.00;99.90;;;;;;5056428;28;20045;-85
2023/08/24 03:50:56;;;;;;;15.07;6.88;;;17.00;99.90;;;;;;5054937;28;20091;-85
2023/08/24 03:53:22;;;;;;;12.25;6.88;;;17.00;99.90;;;;;;5088390;28;20558;-86
2023/08/24 03:55:49;;;;;;;10.10;6.35;;;16.90;99.90;;;;;;5054844;28;20040;-85
2023/08/24 03:58:15;;;;;;;10.10;4.25;;;16.90;99.90;;;;;;5088651;28;20056;-85
2023/08/24 04:00:41;;;;;;;10.43;5.22;;;16.90;99.90;;;;;;5058387;28;20037;-84
2023/08/24 04:03:08;;;;;;;12.48;7.00;;;16.90;99.90;;;;;;5064389;28;20036;-85
2023/08/24 04:05:33;;;;;;;10.25;6.53;;;16.90;99.90;;;;;;5055905;28;20033;-85
2023/08/24 04:08:00;;;;;;;7.63;4.32;;;16.90;99.90;;;;;;5053336;28;20056;-85
2023/08/24 04:10:27;;;;;;;9.40;5.30;;;16.90;99.90;;;;;;5085794;28;20116;-85
2023/08/24 04:12:53;;;;;;;10.18;5.80;;;16.90;99.90;;;;;;5056349;28;20025;-85
2023/08/24 04:15:19;;;;;;;9.20;5.53;;;16.80;99.90;;;;;;5054628;28;20072;-85
2023/08/24 04:17:44;;;;;;;6.05;4.45;;;16.80;99.90;;;;;;5057409;28;20490;-85
2023/08/24 04:20:11;;;;;;;9.13;5.68;;;16.80;99.90;;;;;;5057969;28;20064;-85
2023/08/24 04:22:36;;;;;;;11.23;6.43;;;16.80;99.90;;;;;;5056376;28;20041;-85
2023/08/24 04:25:02;;;;;;;8.65;5.40;;;16.70;99.90;;;;;;5060037;28;20395;-85
2023/08/24 04:27:28;;;;;;;10.73;6.95;;;16.70;99.90;;;;;;5056631;28;20044;-85
2023/08/24 04:29:54;;;;;;;8.63;5.50;;;16.70;99.90;;;;;;5049883;28;20040;-84
2023/08/24 04:32:19;;;;;;;10.25;6.47;;;16.70;99.90;;;;;;5053767;28;20533;-85
2023/08/24 04:34:45;;;;;;;15.13;6.93;;;16.60;99.90;;;;;;5053702;28;20103;-85
2023/08/24 04:37:11;;;;;;;9.52;6.13;;;16.60;99.90;;;;;;5073000;28;20393;-84
2023/08/24 04:39:37;;;;;;;13.07;7.55;;;16.60;99.90;;;;;;5051466;28;20138;-84
2023/08/24 04:42:03;;;;;;;14.05;8.02;;;16.60;99.90;;;;;;5054152;28;20048;-85
2023/08/24 04:44:28;;;;;;;9.68;6.90;;;16.60;99.90;;;;;;5050895;28;20424;-85
2023/08/24 04:46:54;;;;;;;12.65;7.63;;;16.60;99.90;;;;;;5049938;28;20045;-86
2023/08/24 04:49:20;;;;;;;14.25;9.45;;;16.60;99.90;;;;;;5054952;28;20033;-85
2023/08/24 04:51:46;;;;;;;16.10;8.93;;;16.60;99.90;;;;;;5057940;28;20090;-85
2023/08/24 04:54:11;;;;;;;13.15;7.97;;;16.60;99.90;;;;;;5054368;28;20052;-85
2023/08/24 04:56:37;;;;;;;14.40;8.82;;;16.50;99.90;;;;;;5051594;28;20070;-86
2023/08/24 04:59:03;;;;;;;16.08;8.85;;;16.60;99.90;;;;;;5055197;28;20131;-85
2023/08/24 05:01:31;;;;;;;12.82;8.68;;;16.60;99.90;;;;;;5050417;28;20045;-84
2023/08/24 05:03:57;;;;;;;14.18;9.73;;;16.60;99.90;;;;;;5065790;28;20044;-93
2023/08/24 05:06:23;;;;;;;12.73;10.00;;;16.60;99.90;;;;;;5055615;28;20037;-85
2023/08/24 05:08:49;;;;;;;12.93;9.85;;;16.60;99.90;;;;;;5056440;28;20040;-85
2023/08/24 05:11:21;;;;;;;13.38;7.57;;;16.60;99.90;;;;;;5060861;28;20044;-85
2023/08/24 05:13:47;;;;;;;14.00;10.02;;;16.60;99.90;;;;;;5060176;28;20029;-85
2023/08/24 05:16:13;;;;;;;13.32;10.07;;;16.60;99.90;;;;;;5053547;28;20051;-85
2023/08/24 05:18:39;;;;;;;13.88;9.32;;;16.60;99.90;;;;;;5050319;28;20045;-83
2023/08/24 05:21:06;;;;;;;15.35;9.35;;;16.60;99.90;;;;;;5051286;28;20037;-83
2023/08/24 05:23:35;;;;;;;13.90;8.93;;;16.60;99.90;;;;;;5052625;28;20084;-85
2023/08/24 05:26:02;;;;;;;14.50;9.20;;;16.60;99.90;;;;;;5072805;28;20060;-85
2023/08/24 05:28:29;;;;;;;13.18;9.50;;;16.60;99.90;;;;;;5052845;28;20117;-84
2023/08/24 05:30:55;;;;;;;10.35;7.93;;;16.50;99.90;;;;;;5055767;28;20064;-85
2023/08/24 05:33:22;;;;;;;12.85;9.20;;;16.60;99.90;;;;;;5053574;28;20112;-85
2023/08/24 05:35:49;;;;;;;13.25;8.73;;;16.60;99.90;;;;;;5054165;28;20685;-82
2023/08/24 05:38:15;;;;;;;13.05;9.35;;;16.60;99.90;;;;;;5039957;28;20137;-86
2023/08/24 05:40:42;;;;;;;15.65;9.13;;;16.60;99.90;;;;;;5063334;28;20029;-85
2023/08/24 05:43:08;;;;;;;14.45;8.18;;;16.60;99.90;;;;;;5051531;28;20124;-85
2023/08/24 05:45:39;;;;;;;14.05;9.38;;;16.60;99.90;;;;;;5058455;28;20059;-85
2023/08/24 05:48:05;;;;;;;14.48;9.57;;;16.60;99.90;;;;;;5055296;28;20040;-86
2023/08/24 05:50:31;;;;;;;15.20;9.80;;;16.60;99.90;;;;;;5052587;28;20041;-88
2023/08/24 05:52:56;;;;;;;15.40;10.00;;;16.60;99.90;;;;;;5055377;28;20044;-88
2023/08/24 05:55:22;;;;;;;13.45;8.40;;;16.60;99.90;;;;;;5054783;28;20089;-85
2023/08/24 05:57:48;;;;;;;13.13;8.18;;;16.50;99.90;;;;;;5052360;28;20523;-85
2023/08/24 06:00:14;;;;;;;12.55;9.07;;;16.50;99.90;;;;;;5052492;28;20423;-86
2023/08/24 06:02:40;;;;;;;14.73;8.70;;;16.50;99.90;;;;;;5049628;28;20037;-85
2023/08/24 06:05:07;;;;;;;10.70;7.30;;;16.50;99.90;;;;;;5053801;28;20056;-85
2023/08/24 06:07:35;;;;;;;11.00;8.23;;;16.50;99.90;;;;;;5052465;28;20044;-85
2023/08/24 06:10:00;;;;;;;13.80;7.47;;;16.50;99.90;;;;;;5053483;28;20240;-85
2023/08/24 06:12:26;;;;;;;13.88;7.90;;;16.50;99.90;;;;;;5074602;28;20400;-85
2023/08/24 06:14:51;;;;;;;11.43;6.93;;;16.60;99.90;;;;;;5042597;28;20040;-84
2023/08/24 06:17:17;;;;;;;11.85;6.28;;;16.60;99.90;;;;;;5051220;28;20060;-84
2023/08/24 06:19:43;;;;;;;13.48;7.45;;;16.60;99.90;;;;;;5088829;28;20078;-85
2023/08/24 06:22:09;;;;;;;11.32;5.80;;;16.60;99.90;;;;;;5054240;28;20102;-85
2023/08/24 06:24:35;;;;;;;12.73;6.28;;;16.70;99.90;;;;;;5053218;28;20476;-84
2023/08/24 06:27:01;;;;;;;13.00;6.50;;;16.70;99.90;;;;;;5056128;28;20033;-85
2023/08/24 06:29:30;;;;;;;10.45;6.32;;;16.70;99.90;;;;;;5056311;28;20040;-85
2023/08/24 06:31:56;;;;;;;10.93;7.03;;;16.70;99.90;;;;;;5049617;28;20473;-85
2023/08/24 06:34:22;;;;;;;9.77;5.78;;;16.80;99.90;;;;;;5038098;28;20121;-85
2023/08/24 06:36:48;;;;;;;10.93;4.82;;;16.80;99.90;;;;;;5052418;28;20331;-85
2023/08/24 06:39:13;;;;;;;14.07;7.03;;;16.80;99.90;;;;;;5049906;28;20518;-84
2023/08/24 06:41:39;;;;;;;13.43;5.95;;;16.80;99.90;;;;;;5050649;28;20079;-85
2023/08/24 06:44:05;;;;;;;10.45;5.72;;;16.90;99.90;;;;;;5052361;28;20045;-85
2023/08/24 06:46:31;;;;;;;11.63;6.40;;;16.90;99.90;;;;;;5053011;28;20110;-85
2023/08/24 06:48:57;;;;;;;8.23;4.80;;;16.90;99.90;;;;;;5057828;28;20452;-85
2023/08/24 06:51:23;;;;;;;7.93;4.68;;;16.90;99.90;;;;;;5081952;28;20037;-85
2023/08/24 06:53:48;;;;;;;8.75;5.50;;;17.00;99.90;;;;;;5057167;28;20152;-85
2023/08/24 06:56:18;;;;;;;9.02;4.78;;;17.00;99.90;;;;;;5040269;28;20044;-85
2023/08/24 06:58:47;;;;;;;9.05;5.10;;;17.00;99.90;;;;;;5057005;28;20484;-85
2023/08/24 07:01:13;;;;;;;11.73;6.22;;;17.10;99.90;;;;;;5054972;28;20103;-85
2023/08/24 07:03:39;;;;;;;13.40;6.75;;;17.10;99.90;;;;;;5068601;28;20059;-91
2023/08/24 07:06:08;;;;;;;16.60;4.95;;;17.10;99.90;;;;;;5054823;28;20064;-91
2023/08/24 07:08:34;;;;;;;12.35;5.97;;;17.20;99.90;;;;;;5058783;28;20039;-86
2023/08/24 07:11:01;;;;;;;12.27;6.75;;;17.20;99.90;;;;;;5059049;28;20068;-86
2023/08/24 07:13:27;;;;;;;12.27;6.95;;;17.30;99.90;;;;;;5061366;28;20078;-86
2023/08/24 07:15:53;;;;;;;8.93;6.45;;;17.30;99.90;;;;;;5063314;28;20278;-86
2023/08/24 07:18:18;;;;;;;10.98;7.22;;;17.30;99.90;;;;;;5058095;28;20438;-86
2023/08/24 07:20:44;;;;;;;12.35;6.60;;;17.40;99.90;;;;;;5056379;28;20303;-86
2023/08/24 07:23:10;;;;;;;15.68;7.63;;;17.40;99.90;;;;;;5061157;28;20029;-86
2023/08/24 07:25:36;;;;;;;14.15;9.05;;;17.40;99.90;;;;;;5057702;28;20051;-87
2023/08/24 07:28:03;;;;;;;11.23;7.60;;;17.50;99.90;;;;;;5060049;28;20094;-86
2023/08/24 07:30:28;;;;;;;13.50;8.32;;;17.50;99.90;;;;;;5059324;28;20048;-86
2023/08/24 07:32:54;;;;;;;14.35;9.30;;;17.60;99.90;;;;;;5056824;28;20078;-85
2023/08/24 07:35:20;;;;;;;16.42;8.35;;;17.60;99.90;;;;;;5060137;28;20040;-86
2023/08/24 07:37:49;;;;;;;14.43;8.65;;;17.70;99.90;;;;;;5063913;28;20242;-85
2023/08/24 07:40:18;;;;;;;13.93;7.97;;;17.70;99.90;;;;;;5057773;28;20098;-85
2023/08/24 07:42:45;;;;;;;12.35;8.00;;;17.70;99.90;;;;;;5060908;28;20028;-86
2023/08/24 07:45:14;;;;;;;14.88;9.15;;;17.80;99.90;;;;;;5059275;28;20040;-85
2023/08/24 07:47:41;;;;;;;16.55;8.68;;;17.80;99.90;;;;;;5054838;28;20051;-85
2023/08/24 07:50:08;;;;;;;11.80;8.00;;;17.90;99.90;;;;;;5061010;28;20123;-93
2023/08/24 07:52:33;;;;;;;14.75;8.77;;;18.00;99.90;;;;;;5062881;28;20044;-93
2023/08/24 07:55:00;;;;;;;16.23;8.48;;;18.00;99.90;;;;;;5056622;28;20048;-93
2023/08/24 07:57:26;;;;;;;13.20;9.35;;;18.10;99.90;;;;;;5063918;28;20036;-93
2023/08/24 07:59:52;;;;;;;14.27;8.63;;;18.20;99.90;;;;;;5061575;28;20097;-94
2023/08/24 08:02:18;;;;;;;9.48;7.00;;;18.20;99.90;;;;;;5067002;28;20036;-94
2023/08/24 08:04:44;;;;;;;13.43;7.78;;;18.20;99.90;;;;;;5064438;28;20067;-94
2023/08/24 08:07:09;;;;;;;14.38;8.43;;;18.30;99.90;;;;;;5062327;28;20049;-94
2023/08/24 08:09:36;;;;;;;13.52;7.68;;;18.40;99.90;;;;;;5064098;28;20101;-95
2023/08/24 08:12:03;;;;;;;12.40;8.10;;;18.50;99.90;;;;;;5060723;28;20120;-93
2023/08/24 08:14:29;;;;;;;11.85;6.80;;;18.60;99.90;;;;;;5057654;28;20051;-91
2023/08/24 08:16:55;;;;;;;11.00;7.30;;;18.60;99.90;;;;;;5061065;28;20045;-92
2023/08/24 08:19:21;;;;;;;10.77;6.20;;;18.80;99.90;;;;;;5060204;28;20060;-91
2023/08/24 08:21:47;;;;;;;14.07;8.35;;;18.80;99.90;;;;;;5056773;28;20036;-91
2023/08/24 08:24:13;;;;;;;17.55;7.70;;;18.90;99.90;;;;;;5061467;28;20045;-91
2023/08/24 08:26:39;;;;;;;10.77;7.22;;;19.00;99.90;;;;;;5057188;28;20055;-91
2023/08/24 08:29:05;;;;;;;10.63;7.00;;;19.20;99.90;;;;;;5060793;28;20119;-92
2023/08/24 08:31:31;;;;;;;12.38;5.53;;;19.30;99.90;;;;;;5059620;28;20123;-90
2023/08/24 08:33:56;;;;;;;14.27;6.88;;;19.50;99.90;;;;;;5054714;28;20111;-91
2023/08/24 08:36:22;;;;;;;13.05;6.65;;;19.70;99.90;;;;;;5058111;28;20029;-92
2023/08/24 08:38:49;;;;;;;11.60;5.75;;;19.80;99.90;;;;;;5055201;28;20119;-91
2023/08/24 08:41:17;;;;;;;12.25;6.28;;;20.00;99.90;;;;;;5050225;28;20475;-90
2023/08/24 08:43:43;;;;;;;12.35;5.70;;;20.10;99.90;;;;;;5055554;28;20032;-90
2023/08/24 08:46:09;;;;;;;12.57;5.97;;;20.20;99.90;;;;;;5060031;28;20053;-90
2023/08/24 08:48:36;;;;;;;14.05;6.78;;;20.30;99.90;;;;;;5058118;28;20120;-90
2023/08/24 08:51:02;;;;;;;12.15;6.63;;;20.40;99.90;;;;;;5058830;28;20559;-90
2023/08/24 08:53:28;;;;;;;14.50;7.50;;;20.40;99.90;;;;;;5066445;28;20178;-91
2023/08/24 08:55:55;;;;;;;11.85;6.28;;;20.50;99.90;;;;;;5060036;28;20256;-90
2023/08/24 08:58:21;;;;;;;11.05;6.57;;;20.60;99.90;;;;;;5055034;28;20048;-90
2023/08/24 09:00:48;;;;;;;8.95;6.78;;;20.70;99.90;;;;;;5062633;28;20040;-91
2023/08/24 09:03:17;;;;;;;14.68;7.20;;;20.90;99.90;;;;;;5053878;28;20133;-90
2023/08/24 09:05:42;;;;;;;11.55;6.35;;;21.00;99.90;;;;;;5059696;28;20479;-90
2023/08/24 09:08:09;;;;;;;14.60;6.38;;;21.10;99.90;;;;;;5055085;28;20049;-90
2023/08/24 09:10:35;;;;;;;14.57;6.55;;;21.20;99.90;;;;;;5054427;28;20120;-91
2023/08/24 09:13:00;;;;;;;14.57;7.40;;;21.30;99.90;;;;;;5059172;28;20116;-90
2023/08/24 09:15:27;;;;;;;11.57;6.15;;;21.40;99.90;;;;;;5056071;28;20032;-91
2023/08/24 09:17:54;;;;;;;17.33;7.15;;;21.50;99.90;;;;;;5063727;28;20694;-91
2023/08/24 09:20:20;;;;;;;11.23;6.63;;;21.60;99.90;;;;;;5060649;28;20040;-91
2023/08/24 09:22:46;;;;;;;11.70;6.82;;;21.60;99.90;;;;;;5059710;28;20120;-90
2023/08/24 09:25:12;;;;;;;10.18;6.50;;;21.70;99.90;;;;;;5053343;28;20040;-91
2023/08/24 09:27:37;;;;;;;10.85;6.35;;;21.70;99.90;;;;;;5056107;28;20044;-90
2023/08/24 09:30:05;;;;;;;11.45;6.25;;;21.70;99.90;;;;;;5056441;28;20265;-90
2023/08/24 09:32:32;;;;;;;10.65;6.50;;;21.70;99.90;;;;;;5055065;28;20029;-91
2023/08/24 09:35:10;;;;;;;10.45;5.85;;;21.70;99.90;;;;;;5053477;28;20105;-90
2023/08/24 09:37:36;;;;;;;9.65;5.60;;;21.70;99.90;;;;;;5052317;28;20076;-91
2023/08/24 09:40:09;;;;;;;10.60;6.13;;;21.70;99.90;;;;;;5058421;28;20036;-90
2023/08/24 09:42:44;;;;;;;10.55;5.85;;;21.70;99.90;;;;;;5054796;28;20043;-90
2023/08/24 09:45:14;;;;;;;11.93;4.90;;;21.80;99.90;;;;;;5054335;28;20102;-89
2023/08/24 09:47:44;;;;;;;8.63;4.97;;;21.80;99.90;;;;;;5058617;28;20033;-90
2023/08/24 09:50:10;;;;;;;8.93;4.90;;;21.80;99.90;;;;;;5057678;28;20127;-89
2023/08/24 09:52:37;;;;;;;12.20;4.57;;;21.80;99.90;;;;;;5052929;28;20108;-89
2023/08/24 09:55:07;;;;;;;10.15;4.32;;;21.80;99.90;;;;;;5058711;28;20040;-89
2023/08/24 09:57:40;;;;;;;8.88;5.25;;;21.80;99.90;;;;;;5058291;28;20033;-90
2023/08/24 10:00:10;;;;;;;10.40;5.22;;;21.80;99.90;;;;;;5057833;28;20510;-89
2023/08/24 10:02:50;;;;;;;10.27;5.40;;;21.90;99.90;;;;;;5054526;28;20102;-89
2023/08/24 10:05:25;;;;;;;11.25;5.28;;;21.90;99.90;;;;;;5055277;28;20051;-90
2023/08/24 10:07:56;;;;;;;11.43;5.47;;;21.90;99.90;;;;;;5060792;28;20041;-91
2023/08/24 10:10:25;;;;;;;9.40;5.03;;;21.90;99.90;;;;;;5056985;28;20037;-90
2023/08/24 10:12:59;;;;;;;8.50;5.85;;;21.90;99.90;;;;;;5059285;28;20032;-90
2023/08/24 10:15:26;;;;;;;8.35;4.88;;;21.90;99.90;;;;;;5058846;28;20024;-92
2023/08/24 10:17:53;;;;;;;9.55;5.18;;;21.90;99.90;;;;;;5043191;28;20039;-91
2023/08/24 10:20:23;;;;;;;9.98;5.20;;;21.90;99.90;;;;;;5055806;28;20045;-90
2023/08/24 10:22:50;;;;;;;10.30;5.47;;;21.90;99.90;;;;;;5057708;28;20072;-91
2023/08/24 10:25:18;;;;;;;10.60;5.47;;;21.90;99.90;;;;;;5060463;28;20075;-84
2023/08/24 10:27:47;;;;;;;11.73;5.82;;;21.90;99.90;;;;;;5061073;28;20472;-91
2023/08/24 10:30:14;;;;;;;9.80;5.93;;;21.90;99.90;;;;;;5059348;28;20041;-91
2023/08/24 10:32:42;;;;;;;9.73;6.15;;;21.90;99.90;;;;;;5058124;28;20033;-92
2023/08/24 10:35:08;;;;;;;11.57;5.18;;;21.90;99.90;;;;;;5066565;28;20094;-90
2023/08/24 10:37:34;;;;;;;11.85;5.55;;;21.80;99.90;;;;;;5061217;28;20048;-91
2023/08/24 10:40:00;;;;;;;8.10;5.65;;;21.80;99.90;;;;;;5062136;28;20515;-91
2023/08/24 10:42:26;;;;;;;11.70;5.70;;;21.80;99.90;;;;;;5046276;28;20115;-91
2023/08/24 10:44:53;;;;;;;10.68;5.50;;;21.80;99.90;;;;;;5073033;28;20129;-90
2023/08/24 10:47:23;;;;;;;10.05;4.93;;;21.80;99.90;;;;;;5060904;28;20047;-91
2023/08/24 10:49:55;;;;;;;8.30;5.00;;;21.80;99.90;;;;;;5058213;28;20033;-90
2023/08/24 10:52:24;;;;;;;9.07;5.32;;;21.80;99.90;;;;;;5066524;28;20047;-91
2023/08/24 10:54:52;;;;;;;9.15;5.53;;;21.80;99.90;;;;;;5054978;28;20041;-92
2023/08/24 10:57:38;;;;;;;11.73;6.35;;;21.80;99.90;;;;;;5072765;28;20091;-92
2023/08/24 11:00:12;;;;;;;11.38;5.93;;;21.70;99.90;;;;;;5059637;28;20044;-91
2023/08/24 11:02:45;;;;;;;11.95;5.70;;;21.80;99.90;;;;;;5054981;28;20050;-91
2023/08/24 11:05:32;;;;;;;11.80;5.65;;;21.80;99.90;;;;;;5076374;28;20084;-91
2023/08/24 11:07:59;;;;;;;9.90;5.03;;;21.80;99.90;;;;;;5086528;28;20056;-90
2023/08/24 11:10:31;;;;;;;11.18;5.55;;;21.80;99.90;;;;;;5064715;28;20044;-90
2023/08/24 11:13:13;;;;;;;12.20;5.88;;;21.90;99.90;;;;;;5060531;28;20037;-90
2023/08/24 11:15:41;;;;;;;10.23;5.53;;;21.90;99.90;;;;;;5060361;28;20043;-91
2023/08/24 11:18:27;;;;;;;8.63;4.82;;;22.00;99.90;;;;;;5055861;28;20037;-90
2023/08/24 11:21:05;;;;;;;10.57;5.50;;;22.10;99.90;;;;;;5058441;28;20032;-91
2023/08/24 11:23:31;;;;;;;10.80;6.32;;;22.10;99.90;;;;;;5058783;28;20044;-90
2023/08/24 11:26:00;;;;;;;9.77;6.53;;;22.20;99.90;;;;;;5056259;28;20048;-91
2023/08/24 11:28:28;;;;;;;14.32;6.07;;;22.30;99.90;;;;;;5080538;28;20033;-91
2023/08/24 11:30:55;;;;;;;9.50;5.90;;;22.40;99.90;;;;;;5058141;28;20140;-90
2023/08/24 11:33:32;;;;;;;11.82;6.82;;;22.40;99.90;;;;;;5091339;28;20029;-91
2023/08/24 11:35:59;;;;;;;9.05;6.40;;;22.50;99.90;;;;;;5067157;28;20036;-91
2023/08/24 11:38:25;;;;;;;13.45;6.30;;;22.60;99.90;;;;;;5059261;28;20095;-90
2023/08/24 11:40:51;;;;;;;10.15;7.10;;;22.60;99.90;;;;;;5046272;28;20033;-92
2023/08/24 11:43:29;;;;;;;13.05;8.10;;;22.70;99.90;;;;;;5062719;28;20895;-91
2023/08/24 11:45:56;;;;;;;11.25;7.43;;;22.70;99.90;;;;;;5059271;28;20033;-92
2023/08/24 11:48:29;;;;;;;12.07;7.25;;;22.80;99.90;;;;;;5088209;28;20621;-92
2023/08/24 11:50:55;;;;;;;13.07;7.30;;;22.80;99.90;;;;;;5049937;28;20029;-92
2023/08/24 11:53:24;;;;;;;9.75;7.22;;;22.80;99.90;;;;;;5066616;28;20033;-91
2023/08/24 11:55:52;;;;;;;15.95;8.10;;;22.80;99.90;;;;;;5051181;28;20043;-92
2023/08/24 11:58:17;;;;;;;11.30;7.82;;;22.90;99.90;;;;;;5065803;28;20102;-92
2023/08/24 12:00:45;;;;;;;10.10;6.85;;;23.00;99.90;;;;;;5055982;28;20442;-90
2023/08/24 12:03:12;;;;;;;13.07;7.40;;;23.10;99.90;;;;;;5064223;28;20128;-92
2023/08/24 12:05:38;;;;;;;13.93;7.35;;;23.20;99.90;;;;;;5053489;28;20055;-92
2023/08/24 12:08:04;;;;;;;10.55;6.78;;;23.30;99.90;;;;;;5062423;28;20162;-92
2023/08/24 12:10:31;;;;;;;14.30;6.75;;;23.30;99.90;;;;;;5059321;28;20048;-89
2023/08/24 12:13:05;;;;;;;12.52;7.68;;;23.40;99.90;;;;;;5064004;28;20029;-90
2023/08/24 12:15:33;;;;;;;;;;;23.40;99.90;;;;;;5040871;28;20041;-89
2023/08/24 12:18:13;;;;;;;12.10;7.82;;;23.40;99.90;;;;;;5045612;28;20006;-89
2023/08/24 12:20:41;;;;;;;13.20;7.40;;;23.30;99.90;;;;;;5065925;28;20759;-90
2023/08/24 12:23:08;;;;;;;13.00;7.80;;;23.40;99.90;;;;;;5045525;28;20498;-90
2023/08/24 12:25:40;;;;;;;12.40;8.02;;;23.40;99.90;;;;;;5056084;28;20033;-89
2023/08/24 12:28:14;;;;;;;13.23;7.50;;;23.50;99.90;;;;;;5056257;28;20357;-90
2023/08/24 12:30:43;;;;;;;;;;;23.40;99.90;;;;;;5060119;28;20246;-90
2023/08/24 12:33:20;;;;;;;12.32;5.72;;;23.40;99.90;;;;;;5049030;28;19924;-90
2023/08/24 12:35:45;;;;;;;11.90;6.47;;;23.40;99.90;;;;;;5042574;28;20480;-90
2023/08/24 12:38:11;;;;;;;11.15;6.70;;;23.40;99.90;;;;;;5051291;28;20044;-90
2023/08/24 12:40:37;;;;;;;9.60;5.85;;;23.40;99.90;;;;;;5086944;28;20052;-90